Time;durP1;ratioP1;P1;durP2;ratioP2;P2;SDS_P1;SDS_P2;PMS_P1;PMS_P2;Temp;Humidity;BMP_temperature;BMP_pressure;BME280_temperature;BME280_humidity;BME280_pressure;Samples;Min_cycle;Max_cycle;Signal;HPM_P1;HPM_P2
2020/12/06 00:00:00;;;;;;;19.73;8.98;;;12.90;65.90;;;;;;5112689;28;20020;-74
2020/12/06 00:02:27;;;;;;;21.42;9.63;;;12.80;67.30;;;;;;5111935;28;20040;-74
2020/12/06 00:04:54;;;;;;;20.45;7.95;;;12.60;68.30;;;;;;5112608;28;20035;-75
2020/12/06 00:07:21;;;;;;;22.83;9.88;;;12.50;67.60;;;;;;5112511;28;20027;-75
2020/12/06 00:09:48;;;;;;;18.52;8.50;;;12.40;66.30;;;;;;5110674;28;20031;-75
2020/12/06 00:12:15;;;;;;;16.48;7.97;;;12.60;66.00;;;;;;5112608;28;20020;-74
2020/12/06 00:14:41;;;;;;;19.10;8.18;;;12.50;66.20;;;;;;5112489;28;20034;-74
2020/12/06 00:17:08;;;;;;;18.02;7.95;;;12.40;63.70;;;;;;5112081;28;20040;-74
2020/12/06 00:19:35;;;;;;;18.10;6.97;;;12.60;62.20;;;;;;5112074;28;20019;-74
2020/12/06 00:22:02;;;;;;;15.90;7.38;;;12.60;60.60;;;;;;5111612;28;20449;-74
2020/12/06 00:24:29;;;;;;;15.35;7.18;;;12.60;60.50;;;;;;5112389;28;20030;-75
2020/12/06 00:26:59;;;;;;;14.75;7.07;;;12.70;61.30;;;;;;5112363;28;20034;-74
2020/12/06 00:29:26;;;;;;;13.40;5.93;;;12.70;61.20;;;;;;5112300;28;20031;-74
2020/12/06 00:31:53;;;;;;;18.25;7.05;;;12.60;60.40;;;;;;5110427;28;20047;-75
2020/12/06 00:34:20;;;;;;;17.77;6.47;;;12.70;60.50;;;;;;5111939;28;20046;-75
2020/12/06 00:36:50;;;;;;;15.30;5.93;;;12.60;61.20;;;;;;5111825;28;20024;-74
2020/12/06 00:39:17;;;;;;;14.15;6.10;;;12.60;59.70;;;;;;5111582;28;20023;-74
2020/12/06 00:41:44;;;;;;;14.02;6.97;;;12.50;60.00;;;;;;5111602;28;20019;-76
2020/12/06 00:44:12;;;;;;;14.73;6.20;;;12.50;58.70;;;;;;5111520;28;20036;-74
2020/12/06 00:46:39;;;;;;;15.55;6.28;;;12.50;58.30;;;;;;5111681;28;20024;-74
2020/12/06 00:49:06;;;;;;;15.63;6.68;;;12.50;58.70;;;;;;5111671;28;20032;-74
2020/12/06 00:51:33;;;;;;;17.00;6.25;;;12.40;58.70;;;;;;5108285;28;20023;-75
2020/12/06 00:54:00;;;;;;;13.77;5.82;;;12.40;58.00;;;;;;5106762;28;20028;-74
2020/12/06 00:56:27;;;;;;;14.98;7.18;;;12.40;57.70;;;;;;5111493;28;20035;-75
2020/12/06 00:58:54;;;;;;;16.63;6.80;;;12.30;58.50;;;;;;5111863;28;20023;-74
2020/12/06 01:01:21;;;;;;;15.30;6.78;;;12.20;58.70;;;;;;5111845;28;20387;-75
2020/12/06 01:03:48;;;;;;;14.73;7.57;;;12.20;57.50;;;;;;5112073;28;20348;-74
2020/12/06 01:06:17;;;;;;;19.38;8.57;;;12.20;56.50;;;;;;5111600;28;20463;-75
2020/12/06 01:08:45;;;;;;;19.15;8.60;;;12.00;55.90;;;;;;5111692;28;20031;-75
2020/12/06 01:11:13;;;;;;;20.95;8.27;;;12.00;56.60;;;;;;5109823;28;20032;-76
2020/12/06 01:13:41;;;;;;;17.30;9.25;;;11.90;55.60;;;;;;5089803;28;20052;-77
2020/12/06 01:16:08;;;;;;;21.17;9.68;;;11.90;55.00;;;;;;5091936;28;20039;-77
2020/12/06 01:18:36;;;;;;;18.58;8.40;;;11.90;54.50;;;;;;5109880;28;20027;-76
2020/12/06 01:21:03;;;;;;;14.65;8.20;;;11.90;52.90;;;;;;5111583;28;20027;-74
2020/12/06 01:23:29;;;;;;;16.48;7.35;;;11.90;53.10;;;;;;5111636;28;20046;-75
2020/12/06 01:25:56;;;;;;;17.38;7.60;;;11.80;52.00;;;;;;5111426;28;20376;-72
2020/12/06 01:28:24;;;;;;;16.77;7.30;;;11.80;51.80;;;;;;5111462;28;20038;-71
2020/12/06 01:30:51;;;;;;;20.13;9.07;;;11.80;52.20;;;;;;5111845;28;20024;-73
2020/12/06 01:33:18;;;;;;;20.00;8.43;;;11.90;52.40;;;;;;5111570;28;20027;-74
2020/12/06 01:35:44;;;;;;;17.48;8.18;;;11.80;53.10;;;;;;5111604;28;20027;-74
2020/12/06 01:38:11;;;;;;;15.15;8.07;;;11.70;53.70;;;;;;5111595;28;20027;-73
2020/12/06 01:40:42;;;;;;;19.02;9.82;;;11.60;54.10;;;;;;5111222;28;20129;-74
2020/12/06 01:43:10;;;;;;;19.05;9.77;;;11.40;54.30;;;;;;5111442;28;20031;-74
2020/12/06 01:45:38;;;;;;;17.60;8.75;;;11.40;54.10;;;;;;5111280;28;20028;-74
2020/12/06 01:48:09;;;;;;;19.13;7.53;;;11.30;55.50;;;;;;5111205;28;20719;-74
2020/12/06 01:50:37;;;;;;;22.40;8.85;;;11.20;56.00;;;;;;5111375;28;20036;-73
2020/12/06 01:53:05;;;;;;;16.63;7.60;;;11.10;56.90;;;;;;5115003;28;20027;-74
2020/12/06 01:55:33;;;;;;;15.88;7.60;;;11.10;57.30;;;;;;5114898;28;20055;-74
2020/12/06 01:58:11;;;;;;;17.80;8.18;;;11.10;56.80;;;;;;5115018;28;20042;-74
2020/12/06 02:00:42;;;;;;;17.05;7.22;;;11.10;56.80;;;;;;5115005;28;20023;-74
2020/12/06 02:03:09;;;;;;;13.93;7.68;;;11.10;56.70;;;;;;5112605;28;20044;-75
2020/12/06 02:05:39;;;;;;;18.25;8.60;;;11.10;55.90;;;;;;5112470;28;20380;-76
2020/12/06 02:08:06;;;;;;;17.88;7.70;;;11.10;56.40;;;;;;5095975;28;20016;-75
2020/12/06 02:10:33;;;;;;;13.35;6.82;;;11.00;56.10;;;;;;5094692;28;20024;-75
2020/12/06 02:13:00;;;;;;;18.27;7.20;;;11.10;56.00;;;;;;5095477;28;20031;-74
2020/12/06 02:15:27;;;;;;;18.00;7.80;;;11.10;56.10;;;;;;5094460;28;20035;-75
2020/12/06 02:17:54;;;;;;;17.33;6.85;;;11.10;56.20;;;;;;5094366;28;20463;-74
2020/12/06 02:20:21;;;;;;;16.92;7.80;;;11.00;56.10;;;;;;5094461;28;20371;-74
2020/12/06 02:22:48;;;;;;;19.48;8.13;;;11.00;56.10;;;;;;5107632;28;20051;-74
2020/12/06 02:25:15;;;;;;;19.52;8.50;;;11.00;56.50;;;;;;5113116;28;20036;-74
2020/12/06 02:27:42;;;;;;;18.65;7.25;;;11.00;56.20;;;;;;5100499;28;20031;-74
2020/12/06 02:30:10;;;;;;;15.90;7.70;;;11.00;56.30;;;;;;5093997;28;20025;-75
2020/12/06 02:32:37;;;;;;;19.25;8.43;;;11.00;56.40;;;;;;5098386;28;20055;-74
2020/12/06 02:35:05;;;;;;;15.52;6.60;;;11.00;56.60;;;;;;5095459;28;20365;-74
2020/12/06 02:37:35;;;;;;;19.10;7.68;;;10.90;56.50;;;;;;5093311;28;20480;-74
2020/12/06 02:40:02;;;;;;;23.65;9.55;;;10.90;56.40;;;;;;5094200;28;20043;-75
2020/12/06 02:42:29;;;;;;;14.43;7.53;;;10.90;57.10;;;;;;5094947;28;20036;-74
2020/12/06 02:44:56;;;;;;;21.17;10.05;;;11.00;56.10;;;;;;5092899;28;20048;-74
2020/12/06 02:47:22;;;;;;;17.67;8.38;;;10.90;56.40;;;;;;5101262;28;20027;-74
2020/12/06 02:49:49;;;;;;;25.75;8.30;;;10.90;55.70;;;;;;5112793;28;20042;-74
2020/12/06 02:52:16;;;;;;;22.27;7.97;;;10.90;55.20;;;;;;5112669;28;20372;-74
2020/12/06 02:54:44;;;;;;;19.23;8.32;;;11.00;55.10;;;;;;5112283;28;20035;-74
2020/12/06 02:57:11;;;;;;;17.10;7.90;;;10.90;55.30;;;;;;5109016;28;20036;-74
2020/12/06 02:59:37;;;;;;;18.17;7.32;;;11.00;55.20;;;;;;5093581;28;20029;-74
2020/12/06 03:02:04;;;;;;;20.80;7.85;;;10.90;55.40;;;;;;5094339;28;20467;-74
2020/12/06 03:04:31;;;;;;;23.30;9.27;;;10.90;56.30;;;;;;5093816;28;20036;-74
2020/12/06 03:06:58;;;;;;;23.63;9.30;;;10.80;56.20;;;;;;5095202;28;20020;-74
2020/12/06 03:09:25;;;;;;;20.00;8.90;;;10.70;57.10;;;;;;5113942;28;20020;-73
2020/12/06 03:11:53;;;;;;;19.08;8.05;;;10.60;58.00;;;;;;5113320;28;20396;-74
2020/12/06 03:14:20;;;;;;;19.33;8.93;;;10.60;59.70;;;;;;5093368;28;20036;-73
2020/12/06 03:16:47;;;;;;;24.25;8.98;;;10.50;60.60;;;;;;5093095;28;20460;-75
2020/12/06 03:19:14;;;;;;;19.48;9.60;;;10.50;61.60;;;;;;5112643;28;20037;-74
2020/12/06 03:21:41;;;;;;;20.83;9.40;;;10.40;63.70;;;;;;5113871;28;20035;-74
2020/12/06 03:24:08;;;;;;;28.20;14.50;;;10.30;63.50;;;;;;5111836;28;20472;-74
2020/12/06 03:26:35;;;;;;;31.17;18.67;;;10.30;65.70;;;;;;5113615;28;20031;-74
2020/12/06 03:29:02;;;;;;;29.20;15.63;;;10.10;72.00;;;;;;5096538;28;20024;-74
2020/12/06 03:31:29;;;;;;;22.13;12.38;;;10.00;78.50;;;;;;5105930;28;20032;-74
2020/12/06 03:33:56;;;;;;;25.23;13.38;;;9.90;81.30;;;;;;5111539;28;20020;-74
2020/12/06 03:36:23;;;;;;;20.70;12.90;;;9.80;81.70;;;;;;5113407;28;20035;-74
2020/12/06 03:38:50;;;;;;;24.55;13.18;;;9.70;83.60;;;;;;5112763;28;20020;-74
2020/12/06 03:41:17;;;;;;;24.00;13.35;;;9.60;85.00;;;;;;5113187;28;20031;-74
2020/12/06 03:43:44;;;;;;;33.30;15.32;;;9.60;86.60;;;;;;5111339;28;20039;-74
2020/12/06 03:46:11;;;;;;;40.30;19.40;;;9.40;91.40;;;;;;5113231;28;20530;-74
2020/12/06 03:48:38;;;;;;;31.45;21.20;;;9.20;93.30;;;;;;5105034;28;20035;-74
2020/12/06 03:51:05;;;;;;;34.45;16.15;;;9.10;94.60;;;;;;5092758;28;20031;-75
2020/12/06 03:53:32;;;;;;;24.55;14.98;;;9.20;95.10;;;;;;5093625;28;20050;-74
2020/12/06 03:55:59;;;;;;;21.90;12.23;;;9.20;94.10;;;;;;5092454;28;20052;-75
2020/12/06 03:58:26;;;;;;;26.15;12.00;;;9.30;92.20;;;;;;5096628;28;20032;-75
2020/12/06 04:00:55;;;;;;;17.95;10.07;;;9.50;88.30;;;;;;5112765;27;20054;-74
2020/12/06 04:03:22;;;;;;;16.70;8.65;;;9.60;84.10;;;;;;5107432;28;20036;-74
2020/12/06 04:05:48;;;;;;;17.05;8.18;;;9.60;81.30;;;;;;5092061;28;20122;-74
2020/12/06 04:08:15;;;;;;;23.98;8.32;;;9.70;78.70;;;;;;5105337;28;20038;-75
2020/12/06 04:10:42;;;;;;;15.45;7.80;;;9.80;77.80;;;;;;5112123;28;20032;-75
2020/12/06 04:13:09;;;;;;;22.55;8.13;;;9.80;77.50;;;;;;5112245;28;20034;-75
2020/12/06 04:15:36;;;;;;;15.10;7.63;;;9.80;77.30;;;;;;5110295;28;20028;-74
2020/12/06 04:18:03;;;;;;;18.55;8.13;;;9.80;77.00;;;;;;5112380;28;20024;-74
2020/12/06 04:20:30;;;;;;;16.75;9.60;;;9.80;77.00;;;;;;5112684;28;20020;-74
2020/12/06 04:22:57;;;;;;;18.10;8.18;;;9.80;78.20;;;;;;5109423;28;20356;-74
2020/12/06 04:25:24;;;;;;;18.88;8.70;;;9.70;78.80;;;;;;5092255;28;20035;-74
2020/12/06 04:27:51;;;;;;;17.77;7.90;;;9.70;79.30;;;;;;5108812;28;20098;-74
2020/12/06 04:30:18;;;;;;;17.75;7.47;;;9.60;79.00;;;;;;5110730;28;20027;-74
2020/12/06 04:32:45;;;;;;;13.40;7.70;;;9.60;79.40;;;;;;5112135;28;20035;-74
2020/12/06 04:35:12;;;;;;;19.48;9.70;;;9.60;80.30;;;;;;5099301;28;20039;-74
2020/12/06 04:37:40;;;;;;;20.25;8.75;;;9.60;80.20;;;;;;5091891;28;20032;-74
2020/12/06 04:40:07;;;;;;;20.85;8.02;;;9.60;80.40;;;;;;5100447;28;20015;-74
2020/12/06 04:42:34;;;;;;;19.30;9.00;;;9.50;80.40;;;;;;5110310;28;20039;-74
2020/12/06 04:45:01;;;;;;;20.30;9.57;;;9.50;81.40;;;;;;5112295;28;20034;-74
2020/12/06 04:47:54;;;;;;;14.20;7.63;;;9.50;82.40;;;;;;5104723;28;20036;-74
2020/12/06 04:50:34;;;;;;;15.27;7.57;;;9.50;81.70;;;;;;5092900;28;20024;-74
2020/12/06 04:53:04;;;;;;;14.95;7.72;;;9.50;81.70;;;;;;5091327;28;20041;-75
2020/12/06 04:55:33;;;;;;;14.20;7.30;;;9.50;81.20;;;;;;5098540;28;20036;-74
2020/12/06 04:58:02;;;;;;;15.82;8.02;;;9.60;80.70;;;;;;5112214;28;20032;-75
2020/12/06 05:00:37;;;;;;;21.48;8.95;;;9.60;80.10;;;;;;5110103;28;20031;-75
2020/12/06 05:03:12;;;;;;;19.65;8.18;;;9.50;80.70;;;;;;5111755;28;20060;-74
2020/12/06 05:05:42;;;;;;;15.65;7.63;;;9.50;79.60;;;;;;5104711;28;20028;-74
2020/12/06 05:08:13;;;;;;;19.55;8.30;;;9.60;79.40;;;;;;5091630;28;20372;-74
2020/12/06 05:10:42;;;;;;;19.38;8.85;;;9.60;80.10;;;;;;5092612;28;20016;-75
2020/12/06 05:13:09;;;;;;;16.83;7.50;;;9.60;78.90;;;;;;5094897;28;20051;-73
2020/12/06 05:15:36;;;;;;;17.52;7.45;;;9.60;78.60;;;;;;5111508;28;20024;-73
2020/12/06 05:18:04;;;;;;;19.33;7.57;;;9.70;76.00;;;;;;5107899;28;20024;-73
2020/12/06 05:20:32;;;;;;;19.05;8.38;;;9.70;74.60;;;;;;5091590;28;20028;-73
2020/12/06 05:23:01;;;;;;;18.15;8.02;;;9.80;73.40;;;;;;5109318;28;20034;-75
2020/12/06 05:25:28;;;;;;;15.50;6.97;;;9.80;72.30;;;;;;5090972;28;20484;-74
2020/12/06 05:27:55;;;;;;;21.27;8.82;;;9.90;71.70;;;;;;5114870;28;20474;-74
2020/12/06 05:30:22;;;;;;;24.20;8.52;;;9.80;72.10;;;;;;5115866;28;20032;-74
2020/12/06 05:32:49;;;;;;;20.95;8.90;;;9.90;71.20;;;;;;5113803;28;20035;-72
2020/12/06 05:35:19;;;;;;;18.17;6.78;;;9.90;68.40;;;;;;5098278;28;20392;-74
2020/12/06 05:37:46;;;;;;;18.15;7.55;;;10.00;67.70;;;;;;5095304;28;20128;-74
2020/12/06 05:40:16;;;;;;;16.70;7.80;;;10.10;66.30;;;;;;5111006;28;20028;-73
2020/12/06 05:42:44;;;;;;;17.33;8.25;;;10.10;65.40;;;;;;5113438;28;20031;-74
2020/12/06 05:45:12;;;;;;;27.80;9.00;;;10.10;65.20;;;;;;5104595;28;20020;-73
2020/12/06 05:47:39;;;;;;;23.02;11.23;;;10.20;65.00;;;;;;5105793;28;20031;-74
2020/12/06 05:50:09;;;;;;;19.33;8.68;;;10.10;68.20;;;;;;5105533;28;20023;-74
2020/12/06 05:52:36;;;;;;;17.48;8.45;;;10.00;69.60;;;;;;5096066;28;20032;-73
2020/12/06 05:55:04;;;;;;;23.65;9.20;;;10.00;69.20;;;;;;5095589;28;20365;-74
2020/12/06 05:57:34;;;;;;;18.83;9.02;;;9.90;69.20;;;;;;5113392;28;20047;-75
2020/12/06 06:00:02;;;;;;;19.02;7.80;;;9.90;67.40;;;;;;5109347;28;20020;-73
2020/12/06 06:02:31;;;;;;;27.77;8.40;;;9.90;67.60;;;;;;5114454;28;20031;-73
2020/12/06 06:05:03;;;;;;;21.02;9.43;;;9.90;65.20;;;;;;5114861;28;20024;-73
2020/12/06 06:07:32;;;;;;;22.85;8.45;;;10.00;64.70;;;;;;5114940;28;20037;-74
2020/12/06 06:10:03;;;;;;;17.98;8.00;;;10.10;64.40;;;;;;5115053;28;20028;-73
2020/12/06 06:12:47;;;;;;;16.52;7.32;;;10.10;63.50;;;;;;5114971;28;20039;-74
2020/12/06 06:15:15;;;;;;;20.73;8.73;;;10.10;63.20;;;;;;5114873;28;20036;-73
2020/12/06 06:17:43;;;;;;;18.85;8.18;;;10.10;63.50;;;;;;5114294;28;20022;-73
2020/12/06 06:20:10;;;;;;;20.83;8.75;;;10.10;63.70;;;;;;5107447;28;20026;-73
2020/12/06 06:22:40;;;;;;;22.65;9.35;;;10.10;63.30;;;;;;5092511;28;20051;-74
2020/12/06 06:25:09;;;;;;;23.10;7.82;;;10.10;63.70;;;;;;5101982;28;20031;-75
2020/12/06 06:27:38;;;;;;;19.92;8.40;;;10.10;63.90;;;;;;5108107;28;20024;-74
2020/12/06 06:30:10;;;;;;;21.25;9.30;;;10.10;63.80;;;;;;5102472;28;20020;-73
2020/12/06 06:32:38;;;;;;;19.83;8.38;;;10.10;64.30;;;;;;5092497;28;20036;-73
2020/12/06 06:35:07;;;;;;;18.52;8.60;;;10.10;63.50;;;;;;5096143;28;20479;-74
2020/12/06 06:37:36;;;;;;;26.50;10.88;;;10.00;64.20;;;;;;5113866;28;20024;-73
2020/12/06 06:40:09;;;;;;;26.98;10.10;;;10.00;64.00;;;;;;5114547;28;20028;-73
2020/12/06 06:42:37;;;;;;;21.67;9.40;;;10.00;64.20;;;;;;5094150;28;20028;-73
2020/12/06 06:45:04;;;;;;;25.20;8.73;;;10.00;63.80;;;;;;5094146;28;20024;-73
2020/12/06 06:47:34;;;;;;;18.80;8.02;;;10.00;64.60;;;;;;5096308;28;20028;-74
2020/12/06 06:50:01;;;;;;;21.20;8.25;;;10.00;63.80;;;;;;5114159;28;20020;-73
2020/12/06 06:52:29;;;;;;;20.02;9.32;;;10.10;64.50;;;;;;5113923;28;20020;-73
2020/12/06 06:55:00;;;;;;;21.55;8.23;;;9.80;65.20;;;;;;5113773;28;20499;-73
2020/12/06 06:57:31;;;;;;;19.92;8.23;;;9.80;65.20;;;;;;5113944;28;20046;-73
2020/12/06 06:59:59;;;;;;;;;;;9.70;65.10;;;;;;5114473;28;20031;-73
2020/12/06 07:02:35;;;;;;;23.70;8.80;;;9.90;65.00;;;;;;5113708;28;20244;-73
2020/12/06 07:05:14;;;;;;;17.65;8.05;;;9.90;63.80;;;;;;5114117;28;20042;-71
2020/12/06 07:07:55;;;;;;;20.02;7.38;;;9.90;64.70;;;;;;5109224;28;20024;-71
2020/12/06 07:10:29;;;;;;;22.65;9.65;;;9.80;65.60;;;;;;5093600;28;20376;-71
2020/12/06 07:12:58;;;;;;;21.33;8.48;;;9.90;64.90;;;;;;5093788;28;20027;-76
2020/12/06 07:15:26;;;;;;;15.98;7.90;;;10.00;64.80;;;;;;5109477;28;20035;-75
2020/12/06 07:17:55;;;;;;;19.65;6.95;;;10.00;64.60;;;;;;5113519;28;20024;-75
2020/12/06 07:20:24;;;;;;;17.00;7.13;;;9.90;64.30;;;;;;5113370;28;20111;-74
2020/12/06 07:22:55;;;;;;;19.27;7.22;;;9.90;64.50;;;;;;5112684;28;20055;-75
2020/12/06 07:25:23;;;;;;;14.27;6.22;;;9.90;65.10;;;;;;5113000;28;20058;-76
2020/12/06 07:27:51;;;;;;;23.75;7.10;;;10.10;64.30;;;;;;5113602;28;20015;-74
2020/12/06 07:30:19;;;;;;;13.35;5.47;;;10.10;63.80;;;;;;5113469;28;20035;-75
2020/12/06 07:32:47;;;;;;;16.27;5.57;;;10.10;64.70;;;;;;5113256;28;20464;-74
2020/12/06 07:35:15;;;;;;;10.77;4.22;;;10.10;65.40;;;;;;5113250;28;20023;-74
2020/12/06 07:37:45;;;;;;;10.55;5.40;;;10.10;65.60;;;;;;5111597;28;20035;-73
2020/12/06 07:40:15;;;;;;;14.50;5.70;;;10.10;63.80;;;;;;5112972;28;20399;-75
2020/12/06 07:42:42;;;;;;;16.85;5.88;;;10.10;66.20;;;;;;5113070;28;20032;-74
2020/12/06 07:45:09;;;;;;;23.33;8.27;;;10.00;65.40;;;;;;5113024;28;20039;-74
2020/12/06 07:47:36;;;;;;;13.93;6.85;;;10.00;64.90;;;;;;5112839;28;20030;-75
2020/12/06 07:50:06;;;;;;;12.68;6.13;;;10.00;65.10;;;;;;5112160;28;20049;-75
2020/12/06 07:52:35;;;;;;;12.90;5.35;;;10.00;65.50;;;;;;5112763;28;20419;-75
2020/12/06 07:55:07;;;;;;;9.73;4.68;;;10.00;67.00;;;;;;5112862;28;20043;-75
2020/12/06 07:57:40;;;;;;;10.98;4.65;;;10.00;68.30;;;;;;5112607;28;20035;-75
2020/12/06 08:00:37;;;;;;;12.65;4.72;;;10.00;69.80;;;;;;5112840;28;20039;-75
2020/12/06 08:03:06;;;;;;;7.78;3.72;;;9.90;69.70;;;;;;5029276;28;20425;-74
2020/12/06 08:05:39;;;;;;;11.30;4.82;;;9.90;70.80;;;;;;5029862;28;20071;-74
2020/12/06 08:08:10;;;;;;;9.55;4.57;;;9.80;70.90;;;;;;5029625;28;20030;-75
2020/12/06 08:10:38;;;;;;;9.93;4.60;;;9.70;71.10;;;;;;5029910;28;20037;-75
2020/12/06 08:13:10;;;;;;;9.52;4.85;;;9.60;71.70;;;;;;5012804;28;20524;-74
2020/12/06 08:15:38;;;;;;;11.68;5.07;;;9.60;73.10;;;;;;5030020;28;20033;-74
2020/12/06 08:18:15;;;;;;;10.80;4.38;;;9.60;73.30;;;;;;5029760;28;20509;-75
2020/12/06 08:20:53;;;;;;;12.85;4.50;;;9.60;73.70;;;;;;5029692;28;20367;-75
2020/12/06 08:23:42;;;;;;;8.77;4.07;;;9.50;75.00;;;;;;5029223;28;20480;-73
2020/12/06 08:26:10;;;;;;;12.07;4.35;;;9.60;74.20;;;;;;5029683;28;20040;-74
2020/12/06 08:28:40;;;;;;;15.50;5.25;;;9.60;73.20;;;;;;5029411;28;20029;-72
2020/12/06 08:31:24;;;;;;;13.75;5.78;;;9.70;73.50;;;;;;5029561;28;20030;-72
2020/12/06 08:33:51;;;;;;;14.32;6.38;;;9.70;73.40;;;;;;5029489;28;20077;-73
2020/12/06 08:36:25;;;;;;;12.13;5.63;;;9.70;73.90;;;;;;5029496;28;20021;-73
2020/12/06 08:38:52;;;;;;;11.80;7.03;;;9.70;74.70;;;;;;5029657;28;20026;-75
2020/12/06 08:41:25;;;;;;;12.43;6.05;;;9.70;75.80;;;;;;5103379;28;20035;-73
2020/12/06 08:44:01;;;;;;;15.15;6.47;;;9.70;75.60;;;;;;5094698;28;20047;-72
2020/12/06 08:46:28;;;;;;;11.98;6.28;;;9.80;76.80;;;;;;5104301;28;20034;-72
2020/12/06 08:48:58;;;;;;;18.73;6.53;;;9.80;76.30;;;;;;5112194;28;20034;-73
2020/12/06 08:51:39;;;;;;;12.90;6.45;;;9.80;76.80;;;;;;5099246;28;20043;-75
2020/12/06 08:54:07;;;;;;;15.98;7.50;;;9.80;76.50;;;;;;5092326;28;20400;-73
2020/12/06 08:56:38;;;;;;;14.23;7.18;;;9.80;77.10;;;;;;5095351;28;20054;-73
2020/12/06 08:59:11;;;;;;;13.35;6.75;;;9.80;76.60;;;;;;5101593;28;20035;-74
2020/12/06 09:01:47;;;;;;;13.70;7.07;;;9.80;76.60;;;;;;5115503;28;20028;-73
2020/12/06 09:04:16;;;;;;;12.43;5.88;;;9.80;75.90;;;;;;5118689;28;20042;-73
2020/12/06 09:06:43;;;;;;;17.40;6.63;;;9.80;76.20;;;;;;5110583;28;20038;-73
2020/12/06 09:09:11;;;;;;;12.15;6.38;;;9.80;76.20;;;;;;5118688;28;20077;-73
2020/12/06 09:11:38;;;;;;;11.75;6.72;;;9.90;77.10;;;;;;5117622;28;20030;-74
2020/12/06 09:14:05;;;;;;;13.43;6.43;;;9.90;77.10;;;;;;5116672;28;20486;-73
2020/12/06 09:16:32;;;;;;;11.68;5.40;;;9.90;77.30;;;;;;5115966;28;20020;-75
2020/12/06 09:19:01;;;;;;;16.27;7.35;;;9.90;77.30;;;;;;5118351;28;20395;-74
2020/12/06 09:21:28;;;;;;;15.68;6.75;;;9.90;77.90;;;;;;5107582;28;20031;-74
2020/12/06 09:23:55;;;;;;;14.75;7.03;;;9.90;77.80;;;;;;5110595;28;20046;-74
2020/12/06 09:26:22;;;;;;;18.38;7.03;;;9.90;78.40;;;;;;5102007;28;20039;-74
2020/12/06 09:28:49;;;;;;;14.75;7.45;;;9.90;78.20;;;;;;5098911;28;20043;-75
2020/12/06 09:31:19;;;;;;;13.95;7.38;;;9.90;78.80;;;;;;5096453;28;20051;-74
2020/12/06 09:33:46;;;;;;;14.30;6.90;;;9.80;78.90;;;;;;5110105;28;20024;-74
2020/12/06 09:36:16;;;;;;;18.27;7.65;;;9.80;78.20;;;;;;5118646;28;20035;-74
2020/12/06 09:38:43;;;;;;;16.50;7.80;;;9.80;78.90;;;;;;5116231;28;20039;-75
2020/12/06 09:41:14;;;;;;;19.55;8.43;;;9.80;78.80;;;;;;5112616;28;20080;-74
2020/12/06 09:43:43;;;;;;;15.57;7.30;;;9.80;78.90;;;;;;5099211;28;20388;-75
2020/12/06 09:46:11;;;;;;;22.48;8.02;;;9.80;78.50;;;;;;5117555;28;20267;-75
2020/12/06 09:48:39;;;;;;;18.60;8.80;;;9.80;78.90;;;;;;5099146;28;20031;-75
2020/12/06 09:51:07;;;;;;;18.35;8.60;;;9.90;80.20;;;;;;5097751;28;20024;-73
2020/12/06 09:53:35;;;;;;;23.83;8.73;;;9.80;79.60;;;;;;5098056;28;20028;-73
2020/12/06 09:56:02;;;;;;;16.50;9.00;;;9.90;80.40;;;;;;5118361;28;20048;-74
2020/12/06 09:58:29;;;;;;;20.85;8.77;;;9.90;80.40;;;;;;5099992;28;20028;-74
2020/12/06 10:00:56;;;;;;;21.90;8.38;;;9.90;80.20;;;;;;5098781;28;20039;-75
2020/12/06 10:03:23;;;;;;;21.20;8.80;;;9.90;81.00;;;;;;5111423;28;20050;-75
2020/12/06 10:05:50;;;;;;;21.92;10.18;;;9.90;81.00;;;;;;5115840;28;20043;-73
2020/12/06 10:08:18;;;;;;;17.90;8.93;;;9.90;82.10;;;;;;5117978;28;20028;-73
2020/12/06 10:10:45;;;;;;;15.00;8.20;;;9.90;81.80;;;;;;5104798;28;20036;-74
2020/12/06 10:13:12;;;;;;;15.95;8.35;;;9.90;80.50;;;;;;5112452;28;20502;-74
2020/12/06 10:15:39;;;;;;;22.25;8.15;;;9.90;80.70;;;;;;5112915;28;20027;-74
2020/12/06 10:18:06;;;;;;;21.25;9.13;;;9.90;80.60;;;;;;5113113;28;20039;-74
2020/12/06 10:20:33;;;;;;;17.90;8.75;;;9.90;80.20;;;;;;5114174;28;20371;-74
2020/12/06 10:23:00;;;;;;;15.07;7.22;;;9.90;80.10;;;;;;5113815;28;20039;-73
2020/12/06 10:25:27;;;;;;;20.15;8.70;;;10.00;80.30;;;;;;5103681;28;20404;-74
2020/12/06 10:27:54;;;;;;;21.58;8.25;;;9.90;80.10;;;;;;5093612;28;20036;-74
2020/12/06 10:30:21;;;;;;;18.65;7.80;;;10.00;80.30;;;;;;5102589;28;20034;-74
2020/12/06 10:32:48;;;;;;;19.73;7.80;;;10.00;80.30;;;;;;5114430;28;20344;-74
2020/12/06 10:35:15;;;;;;;17.45;8.18;;;9.90;80.90;;;;;;5106934;28;20043;-74
2020/12/06 10:37:42;;;;;;;20.73;9.05;;;10.00;79.80;;;;;;5095232;28;20051;-73
2020/12/06 10:40:09;;;;;;;17.88;8.95;;;9.90;81.10;;;;;;5099263;28;20386;-73
2020/12/06 10:42:36;;;;;;;19.13;8.65;;;9.90;82.10;;;;;;5098284;28;20395;-74
2020/12/06 10:45:04;;;;;;;15.07;8.98;;;9.90;82.80;;;;;;5097985;28;20036;-73
2020/12/06 10:47:31;;;;;;;17.45;8.98;;;9.80;83.70;;;;;;5107939;28;20023;-73
2020/12/06 10:49:58;;;;;;;18.65;9.43;;;9.80;84.90;;;;;;5114079;28;20027;-75
2020/12/06 10:52:25;;;;;;;17.45;9.25;;;9.80;85.70;;;;;;5104323;28;20043;-76
2020/12/06 10:54:52;;;;;;;18.08;9.43;;;9.80;86.10;;;;;;5095968;28;20054;-75
2020/12/06 10:57:19;;;;;;;37.95;10.88;;;9.70;87.20;;;;;;5113781;28;20027;-73
2020/12/06 10:59:46;;;;;;;19.70;10.20;;;9.70;85.70;;;;;;5111237;28;20054;-73
2020/12/06 11:02:13;;;;;;;18.45;9.43;;;9.60;87.00;;;;;;5114146;28;20376;-72
2020/12/06 11:04:43;;;;;;;18.00;8.15;;;9.50;86.40;;;;;;5094538;28;20048;-72
2020/12/06 11:07:10;;;;;;;20.67;9.38;;;9.50;86.40;;;;;;5097453;28;20027;-74
2020/12/06 11:09:37;;;;;;;18.67;10.15;;;9.40;86.50;;;;;;5105897;28;20039;-73
2020/12/06 11:12:04;;;;;;;28.23;12.85;;;9.30;88.00;;;;;;5108715;28;20019;-74
2020/12/06 11:14:32;;;;;;;29.92;13.45;;;9.20;90.20;;;;;;5113838;28;20039;-74
2020/12/06 11:16:59;;;;;;;26.08;13.50;;;9.10;90.80;;;;;;5113708;28;20021;-74
2020/12/06 11:19:26;;;;;;;25.88;14.30;;;9.10;91.60;;;;;;5095914;28;20376;-74
2020/12/06 11:21:53;;;;;;;27.50;14.20;;;9.00;92.40;;;;;;5099535;28;20133;-74
2020/12/06 11:24:20;;;;;;;28.88;13.98;;;9.00;92.20;;;;;;5113384;28;20046;-73
2020/12/06 11:26:47;;;;;;;25.15;13.88;;;9.10;92.80;;;;;;5102476;28;20028;-74
2020/12/06 11:29:14;;;;;;;27.20;15.45;;;9.10;92.80;;;;;;5107235;28;20038;-74
2020/12/06 11:31:41;;;;;;;27.27;12.98;;;9.10;92.90;;;;;;5108691;28;20016;-73
2020/12/06 11:34:08;;;;;;;27.95;14.35;;;9.20;92.70;;;;;;5092778;28;20495;-73
2020/12/06 11:36:35;;;;;;;27.30;14.38;;;9.20;93.50;;;;;;5111793;28;20039;-73
2020/12/06 11:39:02;;;;;;;25.40;13.35;;;9.30;93.20;;;;;;5113116;28;20024;-74
2020/12/06 11:41:29;;;;;;;23.52;13.65;;;9.30;94.40;;;;;;5108542;28;20035;-74
2020/12/06 11:43:56;;;;;;;25.77;13.73;;;9.30;94.30;;;;;;5105024;28;20035;-74
2020/12/06 11:46:23;;;;;;;28.42;12.50;;;9.30;95.30;;;;;;5093423;28;20039;-74
2020/12/06 11:48:50;;;;;;;24.95;13.70;;;9.30;95.40;;;;;;5111024;28;20055;-73
2020/12/06 11:51:20;;;;;;;16.60;10.32;;;9.20;95.70;;;;;;5109161;28;20038;-73
2020/12/06 11:53:47;;;;;;;17.00;10.10;;;9.30;96.60;;;;;;5104193;28;20024;-73
2020/12/06 11:56:14;;;;;;;17.02;10.35;;;9.20;97.90;;;;;;5112933;28;20044;-73
2020/12/06 11:58:47;;;;;;;16.98;9.90;;;9.20;97.20;;;;;;5112843;28;20026;-73
2020/12/06 12:01:16;;;;;;;22.45;11.02;;;9.10;99.90;;;;;;5111357;28;20024;-74
2020/12/06 12:03:43;;;;;;;15.70;10.23;;;9.10;99.90;;;;;;5092303;28;20032;-74
2020/12/06 12:06:10;;;;;;;15.13;9.40;;;9.10;99.90;;;;;;5093047;28;20054;-74
2020/12/06 12:08:37;;;;;;;17.63;9.63;;;9.10;99.90;;;;;;5112509;28;20015;-74
2020/12/06 12:11:09;;;;;;;21.30;11.25;;;9.00;99.90;;;;;;5106905;28;20036;-73
2020/12/06 12:13:39;;;;;;;17.45;10.65;;;8.80;99.90;;;;;;5093562;28;20040;-74
2020/12/06 12:16:07;;;;;;;18.42;10.20;;;8.70;99.90;;;;;;5110610;28;20059;-74
2020/12/06 12:18:33;;;;;;;17.92;9.55;;;8.70;99.90;;;;;;5110329;28;20034;-73
2020/12/06 12:21:00;;;;;;;12.63;7.15;;;8.80;99.90;;;;;;5092072;28;20032;-74
2020/12/06 12:23:27;;;;;;;8.60;4.93;;;9.00;99.90;;;;;;5093253;28;20028;-72
2020/12/06 12:25:54;;;;;;;5.78;3.50;;;9.10;99.90;;;;;;5091873;28;20040;-72
2020/12/06 12:28:21;;;;;;;10.13;5.80;;;9.20;99.90;;;;;;5101360;28;20030;-72
2020/12/06 12:30:48;;;;;;;9.93;4.70;;;9.20;99.90;;;;;;5112356;28;20030;-72
2020/12/06 12:33:15;;;;;;;8.40;5.22;;;9.20;99.90;;;;;;5104747;28;20026;-73
2020/12/06 12:35:42;;;;;;;9.60;5.30;;;9.20;99.90;;;;;;5091355;28;20024;-72
2020/12/06 12:38:09;;;;;;;9.43;5.60;;;9.20;99.90;;;;;;5098280;28;20053;-72
2020/12/06 12:40:36;;;;;;;8.90;4.80;;;9.10;99.90;;;;;;5102579;28;20028;-73
2020/12/06 12:43:03;;;;;;;6.60;4.50;;;9.10;99.90;;;;;;5096641;28;20019;-73
2020/12/06 12:45:30;;;;;;;6.15;3.30;;;9.10;99.90;;;;;;5110244;28;20035;-74